Details for Norwegian Air Shuttle at LEBL




Go Back


Latest METAR
Local Time

LEBL 232330Z 32008KT 9999 FEW022 05/00 Q1007 NOSIG

24/02/2018, 00:56:39

Description
Results
Norwegian Air Shuttle Logo
Number of Pilots based at LEBL
0 Pilots Based here
Number of Norwegian Air Shuttle Flights Departed from LEBL
0 Flights Departed
Number of Norwegian Air Shuttle Flights Arrived at LEBL
0 Flights Arrived
Number of Norwegian Air Shuttle Schedules Departing from LEBL
7 Schedules
Number of Norwegian Air Shuttle Schedules Arriving at LEBL
8 Schedules
Number of Norwegian Air Shuttle Schedules Departing from LEBL availible today
2 Schedules Today
Number of Norwegian Air Shuttle Schedules Arriving at LEBL availible today
3 Schedules Today
Average Landing Rate at LEBL
-198 fpm
Norwegian Air Shuttle Average Landing Rate at LEBL
0 fpm
Total Fuel Purchased at LEBL by Norwegian Air Shuttle
0.00 kgs / 0.00 lbs

Pilots Based at LEBL


Pilot ID
Pilot Name
Pilot Rank
No. of Flights
No. of Flying Hours
There are no pilots assigned to this hub!   Will you be the first?
Content